Time;durP1;ratioP1;P1;durP2;ratioP2;P2;SDS_P1;SDS_P2;PMS_P1;PMS_P2;Temp;Humidity;BMP_temperature;BMP_pressure;BME280_temperature;BME280_humidity;BME280_pressure;Samples;Min_cycle;Max_cycle;Signal;HPM_P1;HPM_P2
2022/09/09 00:00:56;;;;;;;;;;;;;;;15.70;96.07;100500.34;5007256;28;19929;-65
2022/09/09 00:03:25;;;;;;;;;;;;;;;15.76;95.06;100497.22;5008155;28;19928;-65
2022/09/09 00:05:56;;;;;;;;;;;;;;;15.85;95.10;100499.13;5007939;28;20015;-66
2022/09/09 00:08:28;;;;;;;;;;;;;;;15.63;95.96;100508.84;5007474;28;19927;-66
2022/09/09 00:10:59;;;;;;;;;;;;;;;15.83;95.70;100510.78;5006751;28;19928;-66
2022/09/09 00:13:29;;;;;;;;;;;;;;;16.06;93.44;100509.84;5022079;28;19964;-66
2022/09/09 00:15:58;;;;;;;;;;;;;;;15.83;94.09;100497.56;5007286;28;19932;-66
2022/09/09 00:18:29;;;;;;;;;;;;;;;15.89;94.11;100505.88;5006816;28;19921;-66
2022/09/09 00:20:58;;;;;;;;;;;;;;;16.03;92.30;100504.81;5003363;28;19996;-66
2022/09/09 00:23:26;;;;;;;;;;;;;;;16.10;91.95;100502.53;5006722;28;19921;-66
2022/09/09 00:25:58;;;;;;;;;;;;;;;15.86;93.79;100505.25;5007197;28;19921;-65
2022/09/09 00:28:26;;;;;;;;;;;;;;;16.19;90.88;100504.44;5002448;28;19933;-65
2022/09/09 00:30:53;;;;;;;;;;;;;;;16.37;89.34;100511.75;5005651;28;19921;-65
2022/09/09 00:33:22;;;;;;;;;;;;;;;16.36;88.55;100503.97;5004487;28;20369;-65
2022/09/09 00:35:49;;;;;;;;;;;;;;;16.63;86.67;100495.66;5007457;28;19961;-65
2022/09/09 00:38:19;;;;;;;;;;;;;;;16.23;88.72;100506.72;5006314;28;19925;-65
2022/09/09 00:40:49;;;;;;;;;;;;;;;16.20;89.11;100509.63;4997198;28;19928;-65
2022/09/09 00:43:25;;;;;;;;;;;;;;;16.18;88.60;100500.97;5008000;28;20266;-65
2022/09/09 00:46:06;;;;;;;;;;;;;;;16.24;87.77;100499.63;5006301;28;20348;-66
2022/09/09 00:48:35;;;;;;;;;;;;;;;16.10;88.76;100495.44;4995465;28;19929;-65
2022/09/09 00:51:06;;;;;;;;;;;;;;;16.01;89.01;100493.50;5007979;28;19921;-65
2022/09/09 00:53:39;;;;;;;;;;;;;;;15.94;88.25;100487.84;5006728;28;20012;-65
2022/09/09 00:56:10;;;;;;;;;;;;;;;15.91;88.78;100485.44;5021524;28;19921;-65
2022/09/09 00:58:36;;;;;;;;;;;;;;;15.57;91.08;100487.19;5011910;28;19921;-66
2022/09/09 01:01:06;;;;;;;;;;;;;;;15.70;89.54;100492.41;5004738;28;19928;-66
2022/09/09 01:03:34;;;;;;;;;;;;;;;15.66;89.91;100490.09;5005488;28;20000;-66
2022/09/09 01:06:04;;;;;;;;;;;;;;;15.26;93.46;100490.44;5005745;28;19929;-66
2022/09/09 01:08:57;;;;;;;;;;;;;;;15.39;92.49;100491.22;5006902;28;19938;-66
2022/09/09 01:11:26;;;;;;;;;;;;;;;15.16;94.44;100488.59;4992293;28;19921;-66
2022/09/09 01:13:58;;;;;;;;;;;;;;;15.04;94.15;100495.63;5006059;28;20282;-66
2022/09/09 01:16:25;;;;;;;;;;;;;;;15.27;92.48;100494.75;4999249;28;19976;-66
2022/09/09 01:18:53;;;;;;;;;;;;;;;15.16;92.70;100486.81;5004586;28;20305;-66
2022/09/09 01:21:23;;;;;;;;;;;;;;;15.04;93.86;100499.09;5005443;28;19988;-66
2022/09/09 01:24:06;;;;;;;;;;;;;;;14.99;94.27;100501.25;5004525;28;20293;-66
2022/09/09 01:26:35;;;;;;;;;;;;;;;14.94;95.10;100489.34;5005836;28;19921;-66
2022/09/09 01:29:02;;;;;;;;;;;;;;;15.32;92.18;100494.44;5005740;28;19928;-66
2022/09/09 01:31:30;;;;;;;;;;;;;;;15.39;92.05;100490.34;5009144;28;19929;-66
2022/09/09 01:33:56;;;;;;;;;;;;;;;15.09;93.83;100488.22;5010384;28;19921;-66
2022/09/09 01:36:27;;;;;;;;;;;;;;;15.04;94.04;100479.78;5011221;28;20270;-66
2022/09/09 01:38:53;;;;;;;;;;;;;;;15.24;92.83;100484.44;5010270;28;19932;-66
2022/09/09 01:41:20;;;;;;;;;;;;;;;15.21;92.96;100486.47;5009579;28;20385;-66
2022/09/09 01:43:48;;;;;;;;;;;;;;;15.29;92.08;100481.44;5008700;28;19922;-66
2022/09/09 01:46:15;;;;;;;;;;;;;;;15.46;90.80;100484.50;5009856;28;19928;-66
2022/09/09 01:48:42;;;;;;;;;;;;;;;15.44;90.77;100486.44;5010094;28;19921;-66
2022/09/09 01:51:09;;;;;;;;;;;;;;;15.26;91.49;100490.44;5010244;28;20060;-66
2022/09/09 01:53:35;;;;;;;;;;;;;;;14.92;93.97;100493.91;5009819;28;19944;-66
2022/09/09 01:56:05;;;;;;;;;;;;;;;15.13;92.78;100496.75;5009203;28;19928;-66
2022/09/09 01:58:34;;;;;;;;;;;;;;;15.20;92.15;100497.97;5009894;28;19953;-66
2022/09/09 02:01:07;;;;;;;;;;;;;;;15.13;92.42;100492.31;5004389;28;19921;-66
2022/09/09 02:03:34;;;;;;;;;;;;;;;14.91;93.82;100505.41;5007735;28;19922;-66
2022/09/09 02:06:06;;;;;;;;;;;;;;;14.89;94.06;100502.88;5008685;28;19921;-66
2022/09/09 02:08:37;;;;;;;;;;;;;;;15.18;91.98;100492.81;5009088;28;20381;-66
2022/09/09 02:11:06;;;;;;;;;;;;;;;14.95;93.17;100501.59;5009639;28;19929;-66
2022/09/09 02:13:35;;;;;;;;;;;;;;;15.06;93.09;100504.28;5008743;28;20284;-66
2022/09/09 02:16:06;;;;;;;;;;;;;;;14.79;94.45;100498.38;5009840;28;19927;-66
2022/09/09 02:18:35;;;;;;;;;;;;;;;14.82;95.14;100498.19;5009583;28;20324;-66
2022/09/09 02:21:03;;;;;;;;;;;;;;;14.79;95.43;100504.50;5008659;28;19922;-66
2022/09/09 02:23:30;;;;;;;;;;;;;;;14.91;94.32;100497.50;5010843;28;20384;-66
2022/09/09 02:25:58;;;;;;;;;;;;;;;15.22;92.89;100488.16;5007759;28;20393;-66
2022/09/09 02:28:26;;;;;;;;;;;;;;;14.80;94.90;100490.38;5009014;28;19945;-66
2022/09/09 02:30:54;;;;;;;;;;;;;;;14.77;95.11;100492.38;5009936;28;20468;-66
2022/09/09 02:33:24;;;;;;;;;;;;;;;14.49;97.20;100502.28;5008931;28;19955;-66
2022/09/09 02:35:51;;;;;;;;;;;;;;;14.71;96.18;100501.56;5011950;28;19928;-66
2022/09/09 02:38:18;;;;;;;;;;;;;;;15.02;93.21;100495.75;5010328;28;20296;-66
2022/09/09 02:40:45;;;;;;;;;;;;;;;14.85;94.65;100498.81;5006845;28;20362;-66
2022/09/09 02:43:11;;;;;;;;;;;;;;;14.95;94.11;100486.59;5003555;28;19921;-66
2022/09/09 02:45:43;;;;;;;;;;;;;;;14.97;93.84;100489.97;5009330;28;19922;-66
2022/09/09 02:48:14;;;;;;;;;;;;;;;14.91;93.01;100497.50;5011190;28;19921;-66
2022/09/09 02:50:43;;;;;;;;;;;;;;;14.71;94.58;100488.38;5027538;28;19921;-66
2022/09/09 02:53:14;;;;;;;;;;;;;;;14.68;94.66;100487.75;5029759;28;19991;-66
2022/09/09 02:55:44;;;;;;;;;;;;;;;14.59;95.65;100494.56;5011341;28;19971;-66
2022/09/09 02:58:12;;;;;;;;;;;;;;;14.77;94.60;100487.94;5009491;28;19921;-66
2022/09/09 03:00:39;;;;;;;;;;;;;;;14.75;94.62;100496.91;5007648;28;19944;-66
2022/09/09 03:03:05;;;;;;;;;;;;;;;14.82;93.93;100487.63;5015707;28;20267;-66
2022/09/09 03:05:32;;;;;;;;;;;;;;;14.89;93.29;100489.69;5009834;28;19921;-66
2022/09/09 03:08:00;;;;;;;;;;;;;;;14.78;93.46;100488.81;5007222;28;19925;-66
2022/09/09 03:10:26;;;;;;;;;;;;;;;14.85;93.41;100488.25;5008270;28;19921;-66
2022/09/09 03:12:53;;;;;;;;;;;;;;;14.91;91.82;100493.06;5008556;28;19928;-66
2022/09/09 03:15:19;;;;;;;;;;;;;;;14.73;93.29;100486.50;5005047;28;19931;-66
2022/09/09 03:17:46;;;;;;;;;;;;;;;14.74;92.68;100497.91;4998759;28;20289;-66
2022/09/09 03:20:12;;;;;;;;;;;;;;;14.97;91.40;100489.09;5008838;28;19999;-66
2022/09/09 03:22:38;;;;;;;;;;;;;;;15.07;90.16;100492.78;5007025;28;19921;-66
2022/09/09 03:25:07;;;;;;;;;;;;;;;15.17;90.44;100485.84;5007699;28;19921;-66
2022/09/09 03:27:33;;;;;;;;;;;;;;;14.94;89.55;100492.84;5008256;28;19928;-66
2022/09/09 03:30:03;;;;;;;;;;;;;;;14.65;92.96;100503.81;5001741;28;19925;-66
2022/09/09 03:32:31;;;;;;;;;;;;;;;14.51;91.89;100504.81;5008696;28;19926;-66
2022/09/09 03:34:57;;;;;;;;;;;;;;;14.41;94.72;100507.25;5009382;28;19922;-66
2022/09/09 03:37:23;;;;;;;;;;;;;;;14.89;91.46;100505.50;5006665;28;19921;-66
2022/09/09 03:39:50;;;;;;;;;;;;;;;15.24;89.76;100500.28;5007676;28;19922;-66
2022/09/09 03:42:18;;;;;;;;;;;;;;;14.93;90.50;100514.06;5007924;28;20443;-66
2022/09/09 03:44:47;;;;;;;;;;;;;;;14.63;93.07;100510.03;5004030;28;20387;-66
2022/09/09 03:47:14;;;;;;;;;;;;;;;15.16;90.14;100507.94;5001301;28;20450;-66
2022/09/09 03:49:40;;;;;;;;;;;;;;;15.41;88.15;100509.59;5007674;28;19921;-66
2022/09/09 03:52:06;;;;;;;;;;;;;;;15.33;87.65;100502.25;5007279;28;19984;-66
2022/09/09 03:54:32;;;;;;;;;;;;;;;15.30;87.73;100497.16;5004154;28;19945;-66
2022/09/09 03:56:58;;;;;;;;;;;;;;;15.14;88.62;100504.56;5008277;28;20300;-66
2022/09/09 03:59:27;;;;;;;;;;;;;;;15.09;88.74;100499.63;5007983;28;19967;-66
2022/09/09 04:01:53;;;;;;;;;;;;;;;15.38;87.21;100497.44;5007601;28;20611;-66
2022/09/09 04:04:19;;;;;;;;;;;;;;;15.11;88.24;100497.69;5013070;28;19922;-66
2022/09/09 04:06:46;;;;;;;;;;;;;;;14.78;90.48;100504.63;5027343;28;19927;-66
2022/09/09 04:09:12;;;;;;;;;;;;;;;14.86;90.02;100512.81;5026256;28;19928;-66
2022/09/09 04:11:39;;;;;;;;;;;;;;;15.32;87.62;100499.72;5028569;28;20321;-66
2022/09/09 04:14:05;;;;;;;;;;;;;;;15.46;86.30;100510.91;5027860;28;19967;-66
2022/09/09 04:16:33;;;;;;;;;;;;;;;15.91;83.85;100511.03;4999510;28;19948;-66
2022/09/09 04:19:01;;;;;;;;;;;;;;;15.56;85.25;100503.16;4991455;28;20001;-66
2022/09/09 04:21:27;;;;;;;;;;;;;;;15.16;88.49;100510.56;4987018;28;19928;-66
2022/09/09 04:23:53;;;;;;;;;;;;;;;15.16;88.13;100507.94;4987004;28;19925;-66
2022/09/09 04:26:19;;;;;;;;;;;;;;;15.13;88.97;100512.59;4988439;28;19976;-67
2022/09/09 04:28:46;;;;;;;;;;;;;;;14.68;90.38;100516.78;4987093;28;19922;-66
2022/09/09 04:31:16;;;;;;;;;;;;;;;15.13;89.27;100507.31;4991090;28;19961;-66
2022/09/09 04:33:43;;;;;;;;;;;;;;;14.91;89.58;100511.53;5006616;28;19956;-66
2022/09/09 04:36:09;;;;;;;;;;;;;;;14.44;93.54;100516.78;5009812;28;19971;-66
2022/09/09 04:38:36;;;;;;;;;;;;;;;14.55;92.94;100522.97;5019713;28;20034;-67
2022/09/09 04:41:02;;;;;;;;;;;;;;;14.63;92.78;100517.97;5007264;28;19998;-66
2022/09/09 04:43:30;;;;;;;;;;;;;;;14.50;93.62;100513.69;5007037;28;20362;-66
2022/09/09 04:45:56;;;;;;;;;;;;;;;14.62;93.43;100510.19;5006823;28;20020;-66
2022/09/09 04:48:24;;;;;;;;;;;;;;;14.38;94.84;100507.47;5003654;28;19964;-66
2022/09/09 04:50:59;;;;;;;;;;;;;;;13.98;98.36;100516.47;4986502;28;19926;-66
2022/09/09 04:53:26;;;;;;;;;;;;;;;13.87;99.14;100504.03;4997816;28;19925;-66
2022/09/09 04:55:52;;;;;;;;;;;;;;;14.15;98.89;100513.53;5007533;28;19921;-66
2022/09/09 04:58:18;;;;;;;;;;;;;;;13.98;99.46;100512.03;5006699;28;19925;-66
2022/09/09 05:00:44;;;;;;;;;;;;;;;14.38;98.08;100518.03;5005960;28;19922;-66
2022/09/09 05:03:12;;;;;;;;;;;;;;;14.45;96.72;100527.19;5006363;28;19952;-66
2022/09/09 05:05:38;;;;;;;;;;;;;;;14.23;98.85;100532.25;5005507;28;20389;-66
2022/09/09 05:08:08;;;;;;;;;;;;;;;14.34;98.13;100526.22;5004508;28;19988;-66
2022/09/09 05:10:34;;;;;;;;;;;;;;;14.58;96.00;100522.75;5023682;28;20377;-66
2022/09/09 05:13:01;;;;;;;;;;;;;;;14.60;95.43;100528.75;5012911;28;19953;-66
2022/09/09 05:15:27;;;;;;;;;;;;;;;14.70;95.72;100521.03;5008736;28;19983;-67
2022/09/09 05:17:53;;;;;;;;;;;;;;;14.61;96.68;100525.16;5007697;28;20417;-67
2022/09/09 05:20:19;;;;;;;;;;;;;;;15.01;93.66;100516.97;5010757;28;19922;-66
2022/09/09 05:22:45;;;;;;;;;;;;;;;15.28;91.75;100512.31;5005132;28;19983;-67
2022/09/09 05:25:13;;;;;;;;;;;;;;;15.28;91.77;100527.31;5006224;28;19952;-66
2022/09/09 05:27:39;;;;;;;;;;;;;;;15.44;91.54;100522.56;5011835;28;20373;-66
2022/09/09 05:30:06;;;;;;;;;;;;;;;15.67;90.50;100519.03;5013670;28;20025;-66
2022/09/09 05:32:34;;;;;;;;;;;;;;;15.77;89.81;100530.63;5026765;28;20192;-66
2022/09/09 05:35:00;;;;;;;;;;;;;;;15.77;90.02;100535.06;5010921;28;19926;-67
2022/09/09 05:37:26;;;;;;;;;;;;;;;16.02;89.67;100534.84;5006154;28;19921;-67
2022/09/09 05:39:53;;;;;;;;;;;;;;;16.53;86.72;100536.06;5004284;28;20027;-67
2022/09/09 05:42:20;;;;;;;;;;;;;;;16.52;85.96;100542.31;5012721;28;20257;-67
2022/09/09 05:44:46;;;;;;;;;;;;;;;16.50;85.74;100549.53;5023731;28;19975;-67
2022/09/09 05:47:13;;;;;;;;;;;;;;;16.60;86.53;100544.38;4999137;28;19932;-68
2022/09/09 05:49:39;;;;;;;;;;;;;;;16.26;88.00;100553.28;5002900;28;19972;-68
2022/09/09 05:52:06;;;;;;;;;;;;;;;16.60;87.39;100551.47;5010457;28;19921;-68
2022/09/09 05:54:32;;;;;;;;;;;;;;;16.62;86.74;100547.75;5007739;28;19953;-68
2022/09/09 05:56:59;;;;;;;;;;;;;;;16.64;88.06;100547.63;5006377;28;19929;-69
2022/09/09 05:59:26;;;;;;;;;;;;;;;16.58;88.20;100558.72;4998316;28;20385;-69
2022/09/09 06:01:52;;;;;;;;;;;;;;;16.87;85.75;100541.34;4987017;28;20019;-69
2022/09/09 06:04:22;;;;;;;;;;;;;;;16.51;86.76;100551.22;4986636;28;19945;-69
2022/09/09 06:06:48;;;;;;;;;;;;;;;16.29;88.32;100555.69;4985944;28;20370;-69
2022/09/09 06:09:15;;;;;;;;;;;;;;;16.02;89.82;100551.56;5002963;28;19959;-69
2022/09/09 06:11:41;;;;;;;;;;;;;;;16.61;87.86;100553.16;5006266;28;20340;-69
2022/09/09 06:14:08;;;;;;;;;;;;;;;16.59;89.15;100547.16;5004911;28;19956;-69
2022/09/09 06:16:37;;;;;;;;;;;;;;;16.48;87.69;100562.03;5010104;28;20316;-69
2022/09/09 06:19:04;;;;;;;;;;;;;;;16.57;87.90;100554.38;5009050;28;20344;-69
2022/09/09 06:21:32;;;;;;;;;;;;;;;16.62;87.34;100549.56;5009363;28;19925;-69
2022/09/09 06:23:58;;;;;;;;;;;;;;;16.88;86.38;100554.47;5022795;28;19921;-69
2022/09/09 06:26:25;;;;;;;;;;;;;;;16.47;86.42;100560.38;5014640;28;19925;-69
2022/09/09 06:28:53;;;;;;;;;;;;;;;16.93;85.62;100552.25;5012882;28;19925;-69
2022/09/09 06:31:21;;;;;;;;;;;;;;;17.62;82.95;100538.66;5014119;28;20289;-70
2022/09/09 06:33:49;;;;;;;;;;;;;;;17.46;81.55;100536.41;5021276;28;19927;-70
2022/09/09 06:36:17;;;;;;;;;;;;;;;17.68;81.97;100540.78;5026926;28;19922;-70
2022/09/09 06:38:44;;;;;;;;;;;;;;;17.12;84.10;100546.31;4998974;28;19964;-70
2022/09/09 06:41:11;;;;;;;;;;;;;;;17.15;85.95;100543.41;5008891;28;19932;-70
2022/09/09 06:43:37;;;;;;;;;;;;;;;17.15;85.40;100555.81;5028207;28;19921;-70
2022/09/09 06:46:05;;;;;;;;;;;;;;;17.45;84.18;100540.88;5014006;28;20337;-70
2022/09/09 06:48:32;;;;;;;;;;;;;;;17.88;82.69;100550.56;5010190;28;19968;-70
2022/09/09 06:51:04;;;;;;;;;;;;;;;18.66;78.66;100547.31;5022330;28;19928;-70
2022/09/09 06:53:30;;;;;;;;;;;;;;;18.41;80.55;100557.41;5029813;28;20336;-70
2022/09/09 06:55:57;;;;;;;;;;;;;;;18.36;79.31;100549.00;5027709;28;19930;-70
2022/09/09 06:58:23;;;;;;;;;;;;;;;17.49;82.88;100544.97;5028566;28;20428;-70
2022/09/09 07:00:49;;;;;;;;;;;;;;;17.81;81.74;100544.91;5011999;28;19949;-70
2022/09/09 07:03:15;;;;;;;;;;;;;;;18.55;80.55;100553.56;5016556;28;19921;-70
2022/09/09 07:05:41;;;;;;;;;;;;;;;18.70;78.22;100546.09;5026014;28;19990;-70
2022/09/09 07:08:09;;;;;;;;;;;;;;;19.01;76.89;100547.66;5017749;28;19983;-70
2022/09/09 07:10:35;;;;;;;;;;;;;;;19.14;77.83;100550.06;5011656;28;19921;-71
2022/09/09 07:13:02;;;;;;;;;;;;;;;18.67;78.31;100551.63;5013479;28;20385;-71
2022/09/09 07:15:28;;;;;;;;;;;;;;;18.91;78.40;100555.63;5008989;28;19927;-71
2022/09/09 07:17:54;;;;;;;;;;;;;;;19.50;75.67;100556.56;5008325;28;20443;-71
2022/09/09 07:20:20;;;;;;;;;;;;;;;19.74;74.79;100548.94;5015163;28;19921;-71
2022/09/09 07:22:47;;;;;;;;;;;;;;;20.30;73.71;100549.81;5010950;28;19921;-70
2022/09/09 07:25:16;;;;;;;;;;;;;;;20.74;72.61;100550.03;5007674;28;19925;-70
2022/09/09 07:27:43;;;;;;;;;;;;;;;19.99;71.30;100556.34;5010036;28;20356;-70
2022/09/09 07:30:09;;;;;;;;;;;;;;;19.84;73.37;100555.13;5019525;28;19980;-71
2022/09/09 07:32:35;;;;;;;;;;;;;;;20.49;73.13;100561.38;4995261;28;20439;-70
2022/09/09 07:35:02;;;;;;;;;;;;;;;20.33;72.66;100554.84;4988934;28;19969;-70
2022/09/09 07:37:28;;;;;;;;;;;;;;;20.12;74.13;100556.88;4997474;28;20432;-70
2022/09/09 07:39:54;;;;;;;;;;;;;;;19.82;74.60;100546.44;5007534;28;19921;-71
2022/09/09 07:42:22;;;;;;;;;;;;;;;19.54;75.39;100556.13;5007046;28;20392;-70
2022/09/09 07:44:48;;;;;;;;;;;;;;;19.73;75.46;100552.63;5016537;28;19936;-70
2022/09/09 07:47:14;;;;;;;;;;;;;;;19.47;76.89;100552.38;5014906;28;19928;-70
2022/09/09 07:49:40;;;;;;;;;;;;;;;19.58;77.04;100554.03;5007799;28;20297;-70
2022/09/09 07:52:07;;;;;;;;;;;;;;;20.14;76.15;100557.53;5008870;28;19968;-70
2022/09/09 07:54:33;;;;;;;;;;;;;;;20.64;73.95;100560.75;5013038;28;19931;-70
2022/09/09 07:56:59;;;;;;;;;;;;;;;21.48;70.99;100563.16;5023046;28;20385;-72
2022/09/09 07:59:29;;;;;;;;;;;;;;;20.56;70.73;100565.13;5007334;28;19972;-71
2022/09/09 08:01:55;;;;;;;;;;;;;;;20.28;75.41;100567.78;5007357;28;20008;-71
2022/09/09 08:04:22;;;;;;;;;;;;;;;20.99;70.36;100567.97;5000897;28;20340;-71
2022/09/09 08:06:50;;;;;;;;;;;;;;;20.63;71.78;100563.56;4991728;28;19929;-71
2022/09/09 08:09:17;;;;;;;;;;;;;;;20.70;71.02;100572.63;4993398;28;19961;-71
2022/09/09 08:11:43;;;;;;;;;;;;;;;20.26;72.63;100577.69;5011568;28;20381;-72
2022/09/09 08:14:10;;;;;;;;;;;;;;;19.69;73.54;100559.19;5012502;28;20369;-71
2022/09/09 08:16:40;;;;;;;;;;;;;;;19.21;75.61;100577.78;5006096;28;20660;-72
2022/09/09 08:19:07;;;;;;;;;;;;;;;19.62;74.48;100568.72;5006550;28;20383;-72
2022/09/09 08:21:33;;;;;;;;;;;;;;;19.86;74.02;100569.09;5007213;28;20274;-71
2022/09/09 08:24:00;;;;;;;;;;;;;;;19.55;76.02;100575.59;5006826;28;19921;-71
2022/09/09 08:26:27;;;;;;;;;;;;;;;19.49;75.86;100571.66;5006897;28;19921;-71
2022/09/09 08:28:55;;;;;;;;;;;;;;;19.47;75.33;100573.63;5013274;28;19965;-72
2022/09/09 08:31:22;;;;;;;;;;;;;;;20.23;71.26;100571.81;5026317;28;20373;-71
2022/09/09 08:33:50;;;;;;;;;;;;;;;20.59;70.43;100571.00;5015243;28;19957;-70
2022/09/09 08:36:17;;;;;;;;;;;;;;;21.40;68.33;100565.75;5003333;28;20256;-69
2022/09/09 08:38:43;;;;;;;;;;;;;;;21.85;65.98;100571.81;4996598;28;20384;-68
2022/09/09 08:41:33;;;;;;;;;;;;;;;22.88;65.54;100579.78;4998932;28;19953;-69
2022/09/09 08:44:03;;;;;;;;;;;;;;;23.43;59.16;100581.97;4987809;28;19922;-70
2022/09/09 08:46:33;;;;;;;;;;;;;;;22.80;58.95;100577.06;5007745;28;19921;-69
2022/09/09 08:49:05;;;;;;;;;;;;;;;21.66;62.81;100583.50;5006712;28;19928;-69
2022/09/09 08:51:33;;;;;;;;;;;;;;;22.77;62.26;100583.59;5016170;28;20685;-69
2022/09/09 08:54:02;;;;;;;;;;;;;;;24.10;60.63;100573.53;5026016;28;20409;-69
2022/09/09 08:56:29;;;;;;;;;;;;;;;24.53;56.71;100587.56;5025092;28;19921;-70
2022/09/09 08:58:57;;;;;;;;;;;;;;;25.41;53.31;100582.75;5026133;28;19975;-69
2022/09/09 09:01:32;;;;;;;;;;;;;;;26.17;53.00;100580.75;5021713;28;19921;-70
2022/09/09 09:04:02;;;;;;;;;;;;;;;25.16;52.39;100595.50;5005173;28;19921;-70
2022/09/09 09:06:37;;;;;;;;;;;;;;;23.84;55.94;100585.44;5006569;28;20350;-71
2022/09/09 09:09:06;;;;;;;;;;;;;;;23.24;58.75;100583.88;5006036;28;19928;-71
2022/09/09 09:11:37;;;;;;;;;;;;;;;23.81;57.74;100585.78;5007855;28;19979;-71
2022/09/09 09:14:06;;;;;;;;;;;;;;;24.70;53.90;100594.50;5007600;28;19922;-71
2022/09/09 09:16:36;;;;;;;;;;;;;;;25.48;54.27;100595.28;5006437;28;19921;-71
2022/09/09 09:19:03;;;;;;;;;;;;;;;26.25;51.60;100584.41;5017979;28;19944;-71
2022/09/09 09:21:34;;;;;;;;;;;;;;;25.39;52.60;100600.88;5011905;28;19959;-70
2022/09/09 09:24:06;;;;;;;;;;;;;;;24.19;54.07;100594.00;5006278;28;19987;-71
2022/09/09 09:26:34;;;;;;;;;;;;;;;23.73;55.63;100589.31;5006183;28;19925;-70
2022/09/09 09:29:02;;;;;;;;;;;;;;;24.03;55.95;100585.94;5008173;28;19952;-70
2022/09/09 09:31:29;;;;;;;;;;;;;;;25.14;53.73;100594.81;5007327;28;19929;-70
2022/09/09 09:33:56;;;;;;;;;;;;;;;25.07;52.64;100589.34;5006501;28;20004;-71
2022/09/09 09:36:24;;;;;;;;;;;;;;;25.75;49.77;100585.88;5006854;28;19925;-70
2022/09/09 09:38:55;;;;;;;;;;;;;;;25.87;49.56;100581.72;5004035;28;19971;-71
2022/09/09 09:41:31;;;;;;;;;;;;;;;25.01;50.35;100589.22;5015710;28;19930;-71
2022/09/09 09:43:57;;;;;;;;;;;;;;;25.58;49.38;100584.31;5005860;28;19922;-71
2022/09/09 09:46:25;;;;;;;;;;;;;;;25.95;48.76;100588.88;5006155;28;20108;-70
2022/09/09 09:48:57;;;;;;;;;;;;;;;25.08;50.47;100591.03;5001657;28;19921;-70
2022/09/09 09:51:25;;;;;;;;;;;;;;;25.91;49.85;100588.41;5029102;28;19921;-69
2022/09/09 09:53:52;;;;;;;;;;;;;;;26.36;49.83;100583.97;5014094;28;19921;-69
2022/09/09 09:56:26;;;;;;;;;;;;;;;26.05;48.72;100590.28;5009904;28;19922;-70
2022/09/09 09:58:54;;;;;;;;;;;;;;;24.40;53.41;100595.28;5008879;28;20013;-69
2022/09/09 10:01:23;;;;;;;;;;;;;;;24.78;52.14;100591.81;5021015;28;19921;-70
2022/09/09 10:03:52;;;;;;;;;;;;;;;25.38;51.85;100591.16;5028980;28;19956;-70
2022/09/09 10:06:18;;;;;;;;;;;;;;;25.77;50.92;100591.91;5024876;28;19968;-71
2022/09/09 10:08:46;;;;;;;;;;;;;;;25.19;50.18;100597.81;5016817;28;19925;-71
2022/09/09 10:11:26;;;;;;;;;;;;;;;24.82;50.45;100595.81;5029574;28;20028;-70
2022/09/09 10:14:00;;;;;;;;;;;;;;;24.24;52.96;100590.81;5014585;28;20351;-70
2022/09/09 10:16:33;;;;;;;;;;;;;;;24.26;52.85;100587.94;5003300;28;19955;-70
2022/09/09 10:19:01;;;;;;;;;;;;;;;24.75;52.21;100594.84;5009420;28;20003;-70
2022/09/09 10:21:38;;;;;;;;;;;;;;;24.92;51.71;100592.94;5008441;28;20010;-70
2022/09/09 10:24:14;;;;;;;;;;;;;;;24.93;51.92;100597.28;5009451;28;19921;-69
2022/09/09 10:26:45;;;;;;;;;;;;;;;25.18;50.70;100590.78;5011480;28;20366;-70
2022/09/09 10:29:24;;;;;;;;;;;;;;;25.41;50.39;100580.06;5009523;28;20520;-69
2022/09/09 10:31:56;;;;;;;;;;;;;;;25.67;47.08;100594.00;5009434;28;19987;-70
2022/09/09 10:34:29;;;;;;;;;;;;;;;26.02;50.66;100584.44;5009214;28;20036;-69
2022/09/09 10:36:56;;;;;;;;;;;;;;;25.72;50.31;100585.41;5009888;28;19964;-68
2022/09/09 10:39:32;;;;;;;;;;;;;;;26.22;47.64;100574.88;5008465;28;20346;-69
2022/09/09 10:42:02;;;;;;;;;;;;;;;26.50;47.12;100581.28;5008957;28;19921;-69
2022/09/09 10:44:36;;;;;;;;;;;;;;;27.30;46.39;100581.25;5025285;28;19921;-69
2022/09/09 10:47:22;;;;;;;;;;;;;;;27.12;45.04;100577.31;5006773;28;20341;-69
2022/09/09 10:49:56;;;;;;;;;;;;;;;26.68;46.51;100575.50;5007638;28;19929;-70
2022/09/09 10:52:26;;;;;;;;;;;;;;;26.82;46.64;100574.66;4997031;28;19921;-69
2022/09/09 10:54:58;;;;;;;;;;;;;;;26.20;48.16;100579.59;5009720;28;19975;-68
2022/09/09 10:57:31;;;;;;;;;;;;;;;25.83;49.07;100575.03;5009149;28;20294;-68
2022/09/09 11:00:04;;;;;;;;;;;;;;;26.44;47.53;100567.75;5005566;28;19948;-68
2022/09/09 11:02:31;;;;;;;;;;;;;;;26.42;46.41;100575.19;5007828;28;19922;-68
2022/09/09 11:05:00;;;;;;;;;;;;;;;26.56;46.32;100564.41;5010214;28;19921;-69
2022/09/09 11:07:32;;;;;;;;;;;;;;;26.51;47.03;100568.66;5009629;28;20364;-68
2022/09/09 11:10:01;;;;;;;;;;;;;;;25.64;48.78;100567.50;5008641;28;20014;-68
2022/09/09 11:12:28;;;;;;;;;;;;;;;25.60;49.33;100563.50;5009457;28;19926;-70
2022/09/09 11:14:57;;;;;;;;;;;;;;;25.01;49.85;100568.59;5008788;28;19922;-70
2022/09/09 11:17:26;;;;;;;;;;;;;;;25.60;50.83;100564.34;5007515;28;19928;-69
2022/09/09 11:19:53;;;;;;;;;;;;;;;24.73;50.69;100567.34;5011793;28;19921;-69
2022/09/09 11:22:29;;;;;;;;;;;;;;;25.59;53.27;100562.69;5017352;28;20004;-69
2022/09/09 11:25:00;;;;;;;;;;;;;;;25.76;48.29;100563.34;5006637;28;20332;-69
2022/09/09 11:27:28;;;;;;;;;;;;;;;26.47;46.69;100562.00;4989735;28;19928;-69
2022/09/09 11:30:03;;;;;;;;;;;;;;;25.32;47.94;100551.59;5000094;28;19921;-69
2022/09/09 11:32:40;;;;;;;;;;;;;;;25.07;47.55;100569.72;5007257;28;19929;-69
2022/09/09 11:35:16;;;;;;;;;;;;;;;24.94;46.90;100550.69;5008155;28;19921;-69
2022/09/09 11:38:02;;;;;;;;;;;;;;;25.30;47.67;100554.47;5007509;28;19929;-68
2022/09/09 11:40:30;;;;;;;;;;;;;;;25.23;47.44;100561.59;5004278;28;20381;-69
2022/09/09 11:43:05;;;;;;;;;;;;;;;25.68;44.76;100550.03;5008465;28;19925;-69
2022/09/09 11:45:33;;;;;;;;;;;;;;;26.23;45.01;100548.84;4999755;28;19928;-69
2022/09/09 11:48:01;;;;;;;;;;;;;;;26.38;43.59;100552.38;5015424;28;20392;-69
2022/09/09 11:50:30;;;;;;;;;;;;;;;26.18;43.17;100557.44;5006267;28;19921;-69
2022/09/09 11:53:05;;;;;;;;;;;;;;;25.74;45.02;100554.66;5006376;28;19921;-69
2022/09/09 11:55:32;;;;;;;;;;;;;;;25.75;45.40;100542.91;5008123;28;19929;-69
2022/09/09 11:57:59;;;;;;;;;;;;;;;26.23;44.59;100549.69;5009645;28;19948;-69
2022/09/09 12:00:33;;;;;;;;;;;;;;;25.72;46.17;100559.38;5006818;28;20345;-70
2022/09/09 12:03:01;;;;;;;;;;;;;;;24.60;48.34;100559.03;5013786;28;19921;-69
2022/09/09 12:05:37;;;;;;;;;;;;;;;24.43;49.52;100557.41;5025605;28;19921;-72
2022/09/09 12:08:04;;;;;;;;;;;;;;;23.83;49.28;100552.50;5009868;28;19921;-69
2022/09/09 12:10:31;;;;;;;;;;;;;;;24.18;48.58;100549.44;5009371;28;20395;-69
2022/09/09 12:13:09;;;;;;;;;;;;;;;24.68;48.11;100559.00;5008190;28;19929;-69
2022/09/09 12:15:35;;;;;;;;;;;;;;;25.36;47.47;100542.19;5007833;28;20008;-70
2022/09/09 12:18:03;;;;;;;;;;;;;;;25.04;47.50;100554.81;5006646;28;19953;-68
2022/09/09 12:20:32;;;;;;;;;;;;;;;25.37;49.25;100547.38;5007478;28;19960;-69
2022/09/09 12:23:06;;;;;;;;;;;;;;;24.90;46.83;100555.56;5009156;28;19932;-69
2022/09/09 12:25:38;;;;;;;;;;;;;;;24.94;47.33;100554.22;5026035;28;19921;-69
2022/09/09 12:28:07;;;;;;;;;;;;;;;25.42;46.66;100554.91;5026461;28;19943;-69
2022/09/09 12:30:38;;;;;;;;;;;;;;;25.79;44.08;100544.22;5026063;28;19921;-68
2022/09/09 12:33:11;;;;;;;;;;;;;;;26.41;41.87;100546.63;5027257;28;19927;-69
2022/09/09 12:35:38;;;;;;;;;;;;;;;26.31;43.38;100543.38;5026056;28;19921;-68
2022/09/09 12:38:06;;;;;;;;;;;;;;;26.19;44.27;100552.91;5005616;28;19928;-68
2022/09/09 12:40:35;;;;;;;;;;;;;;;25.29;45.00;100554.66;5006394;28;19929;-69
2022/09/09 12:43:01;;;;;;;;;;;;;;;25.15;47.01;100548.22;5005686;28;19944;-69